createdAt,value
2022-12-07T00:00:13.539Z,1016.21
2022-12-07T00:01:13.595Z,1016.26
2022-12-07T00:02:13.678Z,1016.22
2022-12-07T00:03:13.786Z,1016.20
2022-12-07T00:04:14.139Z,1016.16
2022-12-07T00:05:13.048Z,1016.18
2022-12-07T00:06:13.173Z,1016.18
2022-12-07T00:07:13.196Z,1016.22
2022-12-07T00:08:13.310Z,1016.20
2022-12-07T00:09:13.480Z,1016.17
2022-12-07T00:10:13.550Z,1016.16
2022-12-07T00:11:13.559Z,1016.21
2022-12-07T00:12:13.521Z,1016.19
2022-12-07T00:13:14.160Z,1016.20
2022-12-07T00:14:13.474Z,1016.14
2022-12-07T00:15:13.399Z,1016.23
2022-12-07T00:16:13.835Z,1016.23
2022-12-07T00:17:12.777Z,1016.23
2022-12-07T00:18:13.678Z,1016.22
2022-12-07T00:19:13.576Z,1016.21
2022-12-07T00:20:13.422Z,1016.20
2022-12-07T00:21:13.291Z,1016.19
2022-12-07T00:22:13.331Z,1016.21
2022-12-07T00:23:13.627Z,1016.19
2022-12-07T00:24:13.485Z,1016.20
2022-12-07T00:25:13.355Z,1016.17
2022-12-07T00:26:13.563Z,1016.20
2022-12-07T00:27:13.600Z,1016.22
2022-12-07T00:28:13.587Z,1016.19
2022-12-07T00:29:13.655Z,1016.20
2022-12-07T00:30:14.039Z,1016.16
2022-12-07T00:31:14.468Z,1016.20
2022-12-07T00:32:14.041Z,1016.23
2022-12-07T00:33:13.282Z,1016.19
2022-12-07T00:34:13.163Z,1016.15
2022-12-07T00:35:12.993Z,1016.10
2022-12-07T00:36:13.307Z,1016.12
2022-12-07T00:37:13.390Z,1016.05
2022-12-07T00:38:13.305Z,1016.09
2022-12-07T00:39:13.227Z,1016.11
2022-12-07T00:40:13.075Z,1016.14
2022-12-07T00:41:13.349Z,1016.09
2022-12-07T00:42:13.452Z,1016.08
2022-12-07T00:43:13.512Z,1016.08
2022-12-07T00:44:13.509Z,1016.02
2022-12-07T00:45:13.454Z,1016.04
2022-12-07T00:46:19.606Z,1016.03
2022-12-07T00:47:13.896Z,1016.06
2022-12-07T00:48:19.243Z,1016.06
2022-12-07T00:49:13.142Z,1016.08
2022-12-07T00:50:13.143Z,1016.09
2022-12-07T00:51:13.369Z,1016.08
2022-12-07T00:52:13.302Z,1016.07
2022-12-07T00:53:13.150Z,1016.01
2022-12-07T00:54:13.033Z,1016.00
2022-12-07T00:55:13.044Z,1016.03
2022-12-07T00:56:13.186Z,1015.99
2022-12-07T00:57:13.414Z,1016.00
2022-12-07T00:58:13.384Z,1015.96
2022-12-07T00:59:13.351Z,1015.98
2022-12-07T01:00:13.393Z,1015.97
2022-12-07T01:01:13.753Z,1015.89
2022-12-07T01:02:13.654Z,1015.94
2022-12-07T01:03:13.683Z,1015.94
2022-12-07T01:04:14.020Z,1015.91
2022-12-07T01:05:13.143Z,1015.93
2022-12-07T01:06:13.055Z,1015.94
2022-12-07T01:07:13.119Z,1015.93
2022-12-07T01:08:13.552Z,1015.95
2022-12-07T01:09:13.631Z,1015.91
2022-12-07T01:10:13.528Z,1015.94
2022-12-07T01:11:13.472Z,1015.92
2022-12-07T01:12:13.777Z,1015.95
2022-12-07T01:13:13.698Z,1015.95
2022-12-07T01:14:14.074Z,1015.97
2022-12-07T01:15:12.997Z,1015.96
2022-12-07T01:16:13.076Z,1015.99
2022-12-07T01:17:13.071Z,1015.96
2022-12-07T01:18:12.949Z,1015.92
2022-12-07T01:19:13.051Z,1015.95
2022-12-07T01:20:12.928Z,1015.92
2022-12-07T01:21:12.796Z,1015.93
2022-12-07T01:22:13.696Z,1015.97
2022-12-07T01:23:13.757Z,1015.93
2022-12-07T01:24:13.798Z,1015.88
2022-12-07T01:25:14.836Z,1015.86
2022-12-07T01:26:13.651Z,1015.90
2022-12-07T01:27:13.931Z,1015.91
2022-12-07T01:28:12.860Z,1015.95
2022-12-07T01:29:14.205Z,1015.89
2022-12-07T01:30:13.313Z,1015.89
2022-12-07T01:31:13.303Z,1015.95
2022-12-07T01:32:13.476Z,1015.95
2022-12-07T01:33:13.583Z,1015.93
2022-12-07T01:34:13.896Z,1015.92
2022-12-07T01:35:13.073Z,1015.88
2022-12-07T01:36:13.053Z,1015.89
2022-12-07T01:37:13.149Z,1015.90
2022-12-07T01:38:13.096Z,1015.85
2022-12-07T01:39:13.116Z,1015.87
2022-12-07T01:40:13.056Z,1015.90
2022-12-07T01:41:13.010Z,1015.92
2022-12-07T01:42:12.908Z,1015.93
2022-12-07T01:43:12.702Z,1015.94
2022-12-07T01:44:13.673Z,1015.91
2022-12-07T01:45:13.874Z,1015.95
2022-12-07T01:46:14.332Z,1015.95
2022-12-07T01:47:13.280Z,1015.93
2022-12-07T01:48:13.217Z,1015.91
2022-12-07T01:49:13.460Z,1015.95
2022-12-07T01:50:13.376Z,1015.93
2022-12-07T01:51:13.310Z,1015.90
2022-12-07T01:52:13.267Z,1015.95
2022-12-07T01:53:13.149Z,1015.92
2022-12-07T01:54:13.382Z,1015.91
2022-12-07T01:55:13.332Z,1015.95
2022-12-07T01:56:23.277Z,1015.96
2022-12-07T01:57:13.170Z,1015.91
2022-12-07T01:58:24.710Z,1015.94
2022-12-07T01:59:13.896Z,1015.95
2022-12-07T02:00:12.983Z,1015.92
2022-12-07T02:01:20.885Z,1015.93
2022-12-07T02:02:13.818Z,1015.89
2022-12-07T02:03:13.925Z,1015.87
2022-12-07T02:04:12.776Z,1015.90
2022-12-07T02:05:13.950Z,1015.90
2022-12-07T02:06:12.836Z,1015.90
2022-12-07T02:07:13.663Z,1015.92
2022-12-07T02:08:13.805Z,1015.83
2022-12-07T02:09:13.825Z,1015.84
2022-12-07T02:10:13.720Z,1015.88
2022-12-07T02:11:14.211Z,1015.82
2022-12-07T02:12:13.120Z,1015.83
2022-12-07T02:13:13.646Z,1015.84
2022-12-07T02:14:13.723Z,1015.85
2022-12-07T02:15:13.856Z,1015.80
2022-12-07T02:16:13.897Z,1015.78
2022-12-07T02:17:13.264Z,1015.78
2022-12-07T02:18:13.315Z,1015.79
2022-12-07T02:19:13.159Z,1015.76
2022-12-07T02:20:13.052Z,1015.75
2022-12-07T02:21:12.941Z,1015.77
2022-12-07T02:22:12.891Z,1015.73
2022-12-07T02:23:13.984Z,1015.77
2022-12-07T02:24:13.205Z,1015.74
2022-12-07T02:25:13.150Z,1015.76
2022-12-07T02:26:13.369Z,1015.75
2022-12-07T02:27:13.277Z,1015.78
2022-12-07T02:28:13.600Z,1015.77
2022-12-07T02:29:14.196Z,1015.84
2022-12-07T02:30:13.167Z,1015.84
2022-12-07T02:31:13.320Z,1015.81
2022-12-07T02:32:13.301Z,1015.84
2022-12-07T02:33:13.224Z,1015.85
2022-12-07T02:34:13.131Z,1015.80
2022-12-07T02:35:13.452Z,1015.77
2022-12-07T02:36:18.713Z,1015.80
2022-12-07T02:37:13.604Z,1015.77
2022-12-07T02:38:13.721Z,1015.87
2022-12-07T02:39:13.647Z,1015.84
2022-12-07T02:40:13.561Z,1015.89
2022-12-07T02:41:13.859Z,1015.86
2022-12-07T02:42:13.797Z,1015.88
2022-12-07T02:43:13.930Z,1015.89
2022-12-07T02:44:13.249Z,1015.84
2022-12-07T02:45:13.342Z,1015.92
2022-12-07T02:46:13.335Z,1015.82
2022-12-07T02:47:13.668Z,1015.85
2022-12-07T02:48:13.778Z,1015.84
2022-12-07T02:49:18.847Z,1015.79
2022-12-07T02:50:14.554Z,1015.79
2022-12-07T02:51:13.496Z,1015.81
2022-12-07T02:52:13.430Z,1015.79
2022-12-07T02:53:13.334Z,1015.80
2022-12-07T02:54:13.426Z,1015.81
2022-12-07T02:55:13.464Z,1015.82
2022-12-07T02:56:13.504Z,1015.83
2022-12-07T02:57:13.559Z,1015.81
2022-12-07T02:58:13.793Z,1015.86
2022-12-07T02:59:13.726Z,1015.83
2022-12-07T03:00:13.977Z,1015.83
2022-12-07T03:01:12.949Z,1015.79
2022-12-07T03:02:12.908Z,1015.83
2022-12-07T03:03:13.192Z,1015.81
2022-12-07T03:04:13.191Z,1015.82
2022-12-07T03:05:13.207Z,1015.78
2022-12-07T03:06:13.423Z,1015.80
2022-12-07T03:07:13.578Z,1015.75
2022-12-07T03:08:14.016Z,1015.78
2022-12-07T03:09:13.030Z,1015.76
2022-12-07T03:10:13.042Z,1015.75
2022-12-07T03:11:17.584Z,1015.79
2022-12-07T03:12:13.731Z,1015.83
2022-12-07T03:13:13.568Z,1015.77
2022-12-07T03:14:13.364Z,1015.78
2022-12-07T03:15:13.340Z,1015.80
2022-12-07T03:16:13.328Z,1015.78
2022-12-07T03:17:13.818Z,1015.78
2022-12-07T03:18:13.859Z,1015.78
2022-12-07T03:19:13.768Z,1015.80
2022-12-07T03:20:13.829Z,1015.76
2022-12-07T03:21:13.921Z,1015.77
2022-12-07T03:22:13.275Z,1015.81
2022-12-07T03:23:13.664Z,1015.79
2022-12-07T03:24:13.943Z,1015.82
2022-12-07T03:25:13.272Z,1015.82
2022-12-07T03:26:13.613Z,1015.82
2022-12-07T03:27:13.734Z,1015.78
2022-12-07T03:28:13.629Z,1015.80
2022-12-07T03:29:13.583Z,1015.77
2022-12-07T03:30:13.946Z,1015.79
2022-12-07T03:31:13.366Z,1015.79
2022-12-07T03:32:13.397Z,1015.81
2022-12-07T03:33:13.580Z,1015.81
2022-12-07T03:34:13.976Z,1015.79
2022-12-07T03:35:12.861Z,1015.85
2022-12-07T03:36:14.180Z,1015.77
2022-12-07T03:37:13.363Z,1015.76
2022-12-07T03:38:13.327Z,1015.73
2022-12-07T03:39:13.219Z,1015.73
2022-12-07T03:40:13.161Z,1015.69
2022-12-07T03:41:13.030Z,1015.66
2022-12-07T03:42:13.370Z,1015.70
2022-12-07T03:43:13.555Z,1015.65
2022-12-07T03:44:13.470Z,1015.71
2022-12-07T03:45:13.416Z,1015.70
2022-12-07T03:46:13.637Z,1015.72
2022-12-07T03:47:13.624Z,1015.71
2022-12-07T03:48:13.565Z,1015.75
2022-12-07T03:49:13.474Z,1015.74
2022-12-07T03:50:13.377Z,1015.71
2022-12-07T03:51:13.358Z,1015.74
2022-12-07T03:52:13.337Z,1015.69
2022-12-07T03:53:13.473Z,1015.70
2022-12-07T03:54:13.368Z,1015.71
2022-12-07T03:55:13.348Z,1015.70
2022-12-07T03:56:13.423Z,1015.72
2022-12-07T03:57:13.287Z,1015.74
2022-12-07T03:58:13.207Z,1015.69
2022-12-07T03:59:13.534Z,1015.71
2022-12-07T04:00:13.477Z,1015.70
2022-12-07T04:01:13.400Z,1015.75
2022-12-07T04:02:13.605Z,1015.74
2022-12-07T04:03:13.679Z,1015.77
2022-12-07T04:04:13.660Z,1015.73
2022-12-07T04:05:14.120Z,1015.75
2022-12-07T04:06:13.015Z,1015.74
2022-12-07T04:07:12.921Z,1015.77
2022-12-07T04:08:12.928Z,1015.73
2022-12-07T04:09:12.954Z,1015.69
2022-12-07T04:10:12.888Z,1015.70
2022-12-07T04:11:12.758Z,1015.73
2022-12-07T04:12:13.835Z,1015.70
2022-12-07T04:13:14.012Z,1015.72
2022-12-07T04:14:13.043Z,1015.72
2022-12-07T04:15:12.850Z,1015.73
2022-12-07T04:16:14.062Z,1015.70
2022-12-07T04:17:13.367Z,1015.69
2022-12-07T04:18:14.085Z,1015.72
2022-12-07T04:19:12.970Z,1015.67
2022-12-07T04:20:12.847Z,1015.74
2022-12-07T04:21:13.708Z,1015.69
2022-12-07T04:22:13.740Z,1015.73
2022-12-07T04:23:13.881Z,1015.71
2022-12-07T04:24:13.027Z,1015.71
2022-12-07T04:25:13.102Z,1015.71
2022-12-07T04:26:13.281Z,1015.70
2022-12-07T04:27:13.491Z,1015.68
2022-12-07T04:28:13.510Z,1015.69
2022-12-07T04:29:13.510Z,1015.67
2022-12-07T04:30:13.353Z,1015.66
2022-12-07T04:31:13.386Z,1015.67
2022-12-07T04:32:13.342Z,1015.68
2022-12-07T04:33:13.449Z,1015.66
2022-12-07T04:34:13.516Z,1015.63
2022-12-07T04:35:13.643Z,1015.64
2022-12-07T04:36:13.716Z,1015.63
2022-12-07T04:37:13.675Z,1015.68
2022-12-07T04:38:13.575Z,1015.70
2022-12-07T04:39:13.710Z,1015.71
2022-12-07T04:40:13.778Z,1015.69
2022-12-07T04:41:14.845Z,1015.70
2022-12-07T04:42:13.687Z,1015.67
2022-12-07T04:43:13.858Z,1015.70
2022-12-07T04:44:14.033Z,1015.74
2022-12-07T04:45:13.221Z,1015.68
2022-12-07T04:46:13.309Z,1015.69
2022-12-07T04:47:13.586Z,1015.66
2022-12-07T04:48:13.694Z,1015.68
2022-12-07T04:49:13.698Z,1015.64
2022-12-07T04:50:13.559Z,1015.63
2022-12-07T04:51:13.520Z,1015.65
2022-12-07T04:52:13.361Z,1015.68
2022-12-07T04:53:13.287Z,1015.60
2022-12-07T04:54:13.145Z,1015.63
2022-12-07T04:55:13.101Z,1015.68
2022-12-07T04:56:13.190Z,1015.63
2022-12-07T04:57:13.171Z,1015.68
2022-12-07T04:58:13.046Z,1015.65
2022-12-07T04:59:13.034Z,1015.66
2022-12-07T05:00:13.005Z,1015.65
2022-12-07T05:01:12.935Z,1015.66
2022-12-07T05:02:12.919Z,1015.63
2022-12-07T05:03:12.995Z,1015.65
2022-12-07T05:04:12.995Z,1015.62
2022-12-07T05:05:12.899Z,1015.59
2022-12-07T05:06:13.799Z,1015.59
2022-12-07T05:07:13.062Z,1015.53
2022-12-07T05:08:12.944Z,1015.56
2022-12-07T05:09:13.013Z,1015.56
2022-12-07T05:10:12.866Z,1015.59
2022-12-07T05:11:14.250Z,1015.48
2022-12-07T05:12:13.218Z,1015.51
2022-12-07T05:13:13.231Z,1015.55
2022-12-07T05:14:13.372Z,1015.58
2022-12-07T05:15:13.433Z,1015.59
2022-12-07T05:16:13.894Z,1015.57
2022-12-07T05:17:12.826Z,1015.62
2022-12-07T05:18:13.734Z,1015.62
2022-12-07T05:19:14.684Z,1015.61
2022-12-07T05:20:13.833Z,1015.60
2022-12-07T05:21:13.900Z,1015.58
2022-12-07T05:22:12.887Z,1015.61
2022-12-07T05:23:12.955Z,1015.58
2022-12-07T05:24:12.965Z,1015.61
2022-12-07T05:25:13.008Z,1015.63
2022-12-07T05:26:13.011Z,1015.57
2022-12-07T05:27:12.992Z,1015.63
2022-12-07T05:28:12.981Z,1015.60
2022-12-07T05:29:13.140Z,1015.60
2022-12-07T05:30:13.129Z,1015.57
2022-12-07T05:31:13.228Z,1015.63
2022-12-07T05:32:13.462Z,1015.66
2022-12-07T05:33:13.340Z,1015.61
2022-12-07T05:34:13.533Z,1015.60
2022-12-07T05:35:13.821Z,1015.52
2022-12-07T05:36:13.963Z,1015.55
2022-12-07T05:37:12.817Z,1015.54
2022-12-07T05:38:13.676Z,1015.58
2022-12-07T05:39:13.508Z,1015.56
2022-12-07T05:40:13.852Z,1015.53
2022-12-07T05:41:13.761Z,1015.53
2022-12-07T05:42:13.611Z,1015.51
2022-12-07T05:43:13.626Z,1015.53
2022-12-07T05:44:13.594Z,1015.51
2022-12-07T05:45:13.989Z,1015.51
2022-12-07T05:46:13.236Z,1015.48
2022-12-07T05:47:13.185Z,1015.46
2022-12-07T05:48:13.007Z,1015.46
2022-12-07T05:49:12.847Z,1015.40
2022-12-07T05:50:13.830Z,1015.48
2022-12-07T05:51:13.830Z,1015.47
2022-12-07T05:52:13.933Z,1015.50
2022-12-07T05:53:12.881Z,1015.50
2022-12-07T05:54:12.818Z,1015.53
2022-12-07T05:55:13.714Z,1015.48
2022-12-07T05:56:13.907Z,1015.46
2022-12-07T05:57:12.800Z,1015.46
2022-12-07T05:58:14.032Z,1015.45
2022-12-07T05:59:12.921Z,1015.45
2022-12-07T06:00:12.831Z,1015.43
2022-12-07T06:01:13.855Z,1015.47
2022-12-07T06:02:13.824Z,1015.51
2022-12-07T06:03:13.241Z,1015.51
2022-12-07T06:04:13.561Z,1015.50
2022-12-07T06:06:19.939Z,1015.53
2022-12-07T06:07:14.195Z,1015.49
2022-12-07T06:08:13.432Z,1015.47
2022-12-07T06:09:13.978Z,1015.49
2022-12-07T06:10:12.863Z,1015.47
2022-12-07T06:11:13.744Z,1015.48
2022-12-07T06:12:13.699Z,1015.48
2022-12-07T06:13:13.670Z,1015.46
2022-12-07T06:14:13.630Z,1015.50
2022-12-07T06:15:13.776Z,1015.48
2022-12-07T06:16:14.674Z,1015.48
2022-12-07T06:17:14.253Z,1015.50
2022-12-07T06:18:13.299Z,1015.55
2022-12-07T06:19:13.239Z,1015.55
2022-12-07T06:20:13.154Z,1015.52
2022-12-07T06:21:13.209Z,1015.56
2022-12-07T06:22:13.459Z,1015.56
2022-12-07T06:23:13.329Z,1015.54
2022-12-07T06:24:13.340Z,1015.53
2022-12-07T06:25:13.614Z,1015.56
2022-12-07T06:26:13.603Z,1015.55
2022-12-07T06:27:13.591Z,1015.52
2022-12-07T06:28:13.547Z,1015.52
2022-12-07T06:29:13.725Z,1015.49
2022-12-07T06:30:13.714Z,1015.53
2022-12-07T06:31:14.342Z,1015.51
2022-12-07T06:32:13.642Z,1015.55
2022-12-07T06:33:13.709Z,1015.54
2022-12-07T06:34:13.575Z,1015.54
2022-12-07T06:35:13.500Z,1015.52
2022-12-07T06:36:13.393Z,1015.57
2022-12-07T06:37:13.655Z,1015.60
2022-12-07T06:38:13.841Z,1015.57
2022-12-07T06:39:13.907Z,1015.60
2022-12-07T06:40:13.023Z,1015.57
2022-12-07T06:41:12.891Z,1015.54
2022-12-07T06:42:13.091Z,1015.53
2022-12-07T06:43:13.096Z,1015.56
2022-12-07T06:44:13.024Z,1015.54
2022-12-07T06:45:12.943Z,1015.54
2022-12-07T06:46:12.991Z,1015.58
2022-12-07T06:47:39.679Z,1015.58
2022-12-07T06:48:13.311Z,1015.58
2022-12-07T06:49:13.349Z,1015.62
2022-12-07T06:50:13.244Z,1015.59
2022-12-07T06:51:13.263Z,1015.67
2022-12-07T06:52:13.339Z,1015.63
2022-12-07T06:53:13.443Z,1015.69
2022-12-07T06:54:13.727Z,1015.68
2022-12-07T06:55:13.636Z,1015.68
2022-12-07T06:56:13.731Z,1015.66
2022-12-07T06:57:13.603Z,1015.65
2022-12-07T06:58:13.418Z,1015.66
2022-12-07T06:59:13.276Z,1015.66
2022-12-07T07:00:19.993Z,1015.64
2022-12-07T07:01:13.038Z,1015.63
2022-12-07T07:02:13.322Z,1015.65
2022-12-07T07:03:13.766Z,1015.65
2022-12-07T07:04:13.628Z,1015.63
2022-12-07T07:05:13.603Z,1015.69
2022-12-07T07:06:13.579Z,1015.67
2022-12-07T07:07:13.917Z,1015.72
2022-12-07T07:08:23.436Z,1015.69
2022-12-07T07:09:12.935Z,1015.70
2022-12-07T07:10:13.006Z,1015.69
2022-12-07T07:11:12.989Z,1015.67
2022-12-07T07:12:12.927Z,1015.69
2022-12-07T07:13:12.785Z,1015.68
2022-12-07T07:14:13.719Z,1015.73
2022-12-07T07:15:13.587Z,1015.69
2022-12-07T07:16:13.561Z,1015.68
2022-12-07T07:17:13.665Z,1015.72
2022-12-07T07:18:13.955Z,1015.71
2022-12-07T07:19:12.812Z,1015.71
2022-12-07T07:20:13.842Z,1015.75
2022-12-07T07:21:13.763Z,1015.70
2022-12-07T07:22:13.566Z,1015.75
2022-12-07T07:23:13.505Z,1015.74
2022-12-07T07:24:13.426Z,1015.73
2022-12-07T07:25:13.373Z,1015.70
2022-12-07T07:26:13.221Z,1015.72
2022-12-07T07:27:13.132Z,1015.73
2022-12-07T07:28:13.061Z,1015.75
2022-12-07T07:29:12.941Z,1015.72
2022-12-07T07:30:12.905Z,1015.75
2022-12-07T07:31:13.098Z,1015.73
2022-12-07T07:32:13.220Z,1015.79
2022-12-07T07:33:13.311Z,1015.75
2022-12-07T07:34:13.260Z,1015.75
2022-12-07T07:35:13.152Z,1015.72
2022-12-07T07:36:13.559Z,1015.80
2022-12-07T07:37:18.721Z,1015.82
2022-12-07T07:38:13.780Z,1015.78
2022-12-07T07:39:13.592Z,1015.78
2022-12-07T07:40:13.854Z,1015.76
2022-12-07T07:41:13.691Z,1015.74
2022-12-07T07:42:13.655Z,1015.76
2022-12-07T07:43:13.573Z,1015.77
2022-12-07T07:44:13.610Z,1015.77
2022-12-07T07:45:13.639Z,1015.77
2022-12-07T07:46:13.843Z,1015.77
2022-12-07T07:47:12.794Z,1015.77
2022-12-07T07:48:13.652Z,1015.75
2022-12-07T07:49:13.464Z,1015.74
2022-12-07T07:50:13.375Z,1015.76
2022-12-07T07:51:13.434Z,1015.76
2022-12-07T07:52:13.322Z,1015.79
2022-12-07T07:53:13.485Z,1015.72
2022-12-07T07:54:13.455Z,1015.74
2022-12-07T07:55:14.072Z,1015.75
2022-12-07T07:56:13.146Z,1015.76
2022-12-07T07:57:13.183Z,1015.78
2022-12-07T07:58:13.031Z,1015.77
2022-12-07T07:59:13.029Z,1015.77
2022-12-07T08:00:13.172Z,1015.78
2022-12-07T08:01:13.017Z,1015.77
2022-12-07T08:02:13.236Z,1015.78
2022-12-07T08:03:13.263Z,1015.80
2022-12-07T08:04:13.327Z,1015.77
2022-12-07T08:05:13.513Z,1015.78
2022-12-07T08:06:13.908Z,1015.77
2022-12-07T08:07:12.825Z,1015.84
2022-12-07T08:08:13.771Z,1015.81
2022-12-07T08:09:13.964Z,1015.86
2022-12-07T08:10:13.111Z,1015.85
2022-12-07T08:11:13.183Z,1015.83
2022-12-07T08:12:13.087Z,1015.86
2022-12-07T08:13:12.946Z,1015.91
2022-12-07T08:14:12.973Z,1015.86
2022-12-07T08:15:13.030Z,1015.92
2022-12-07T08:16:13.042Z,1015.90
2022-12-07T08:17:13.346Z,1015.84
2022-12-07T08:18:13.412Z,1015.90
2022-12-07T08:19:13.449Z,1015.90
2022-12-07T08:20:13.273Z,1015.93
2022-12-07T08:21:13.068Z,1015.88
2022-12-07T08:22:13.074Z,1015.93
2022-12-07T08:23:13.110Z,1015.94
2022-12-07T08:24:13.291Z,1015.94
2022-12-07T08:25:13.537Z,1015.93
2022-12-07T08:26:13.780Z,1015.93
2022-12-07T08:27:13.685Z,1015.94
2022-12-07T08:28:13.593Z,1015.98
2022-12-07T08:29:13.832Z,1015.98
2022-12-07T08:30:13.922Z,1015.94
2022-12-07T08:31:13.244Z,1015.92
2022-12-07T08:32:13.155Z,1015.96
2022-12-07T08:33:13.091Z,1015.94
2022-12-07T08:34:13.087Z,1015.92
2022-12-07T08:35:12.924Z,1015.93
2022-12-07T08:36:12.810Z,1015.93
2022-12-07T08:37:13.757Z,1015.95
2022-12-07T08:38:13.970Z,1015.95
2022-12-07T08:39:32.588Z,1015.94
2022-12-07T08:40:12.847Z,1015.96
2022-12-07T08:41:13.813Z,1015.99
2022-12-07T08:42:13.895Z,1016.00
2022-12-07T08:43:12.821Z,1015.99
2022-12-07T08:44:14.163Z,1016.02
2022-12-07T08:45:13.220Z,1016.00
2022-12-07T08:46:13.669Z,1016.03
2022-12-07T08:47:13.564Z,1016.06
2022-12-07T08:48:13.698Z,1016.05
2022-12-07T08:49:13.575Z,1016.07
2022-12-07T08:50:13.455Z,1016.07
2022-12-07T08:51:13.592Z,1016.08
2022-12-07T08:52:13.843Z,1016.04
2022-12-07T08:53:13.822Z,1016.04
2022-12-07T08:54:18.906Z,1016.08
2022-12-07T08:55:12.941Z,1016.05
2022-12-07T08:56:18.215Z,1016.04
2022-12-07T08:57:13.077Z,1016.00
2022-12-07T08:58:13.369Z,1016.02
2022-12-07T08:59:13.468Z,1016.00
2022-12-07T09:00:13.564Z,1016.04
2022-12-07T09:01:13.582Z,1016.01
2022-12-07T09:02:13.592Z,1016.02
2022-12-07T09:03:13.482Z,1016.02
2022-12-07T09:04:13.500Z,1016.03
2022-12-07T09:05:16.726Z,1016.01
2022-12-07T09:06:13.302Z,1016.01
2022-12-07T09:07:18.395Z,1015.98
2022-12-07T09:08:13.368Z,1016.01
2022-12-07T09:09:13.345Z,1016.02
2022-12-07T09:10:13.224Z,1015.97
2022-12-07T09:11:13.152Z,1015.98
2022-12-07T09:12:13.025Z,1015.98
2022-12-07T09:13:12.991Z,1016.00
2022-12-07T09:14:13.058Z,1015.99
2022-12-07T09:15:12.936Z,1016.00
2022-12-07T09:16:12.911Z,1016.00
2022-12-07T09:17:13.042Z,1015.95
2022-12-07T09:18:13.148Z,1016.02
2022-12-07T09:19:13.098Z,1016.00
2022-12-07T09:20:13.359Z,1016.01
2022-12-07T09:21:13.320Z,1016.02
2022-12-07T09:22:13.458Z,1015.99
2022-12-07T09:23:13.405Z,1015.97
2022-12-07T09:24:13.674Z,1016.01
2022-12-07T09:25:13.760Z,1015.97
2022-12-07T09:26:13.942Z,1015.98
2022-12-07T09:27:12.915Z,1016.01
2022-12-07T09:28:12.796Z,1016.00
2022-12-07T09:29:13.682Z,1016.02
2022-12-07T09:30:13.551Z,1016.02
2022-12-07T09:31:25.587Z,1016.02
2022-12-07T09:32:12.923Z,1016.01
2022-12-07T09:33:12.852Z,1015.97
2022-12-07T09:34:13.775Z,1015.99
2022-12-07T09:35:13.667Z,1015.98
2022-12-07T09:36:13.664Z,1016.05
2022-12-07T09:37:13.689Z,1016.01
2022-12-07T09:38:13.775Z,1015.98
2022-12-07T09:39:13.652Z,1016.01
2022-12-07T09:40:13.795Z,1015.96
2022-12-07T09:41:13.727Z,1015.95
2022-12-07T09:42:13.549Z,1016.01
2022-12-07T09:43:13.790Z,1015.95
2022-12-07T09:44:13.797Z,1015.95
2022-12-07T09:45:13.899Z,1015.96
2022-12-07T09:46:12.905Z,1015.93
2022-12-07T09:47:13.011Z,1015.92
2022-12-07T09:48:13.060Z,1015.90
2022-12-07T09:49:12.944Z,1015.91
2022-12-07T09:50:12.835Z,1016.00
2022-12-07T09:51:16.757Z,1015.94
2022-12-07T09:52:12.981Z,1015.99
2022-12-07T09:53:12.839Z,1015.91
2022-12-07T09:54:13.758Z,1015.92
2022-12-07T09:55:13.658Z,1015.90
2022-12-07T09:56:13.693Z,1015.91
2022-12-07T09:57:13.650Z,1015.90
2022-12-07T09:58:13.683Z,1015.86
2022-12-07T09:59:13.860Z,1015.91
2022-12-07T10:00:13.869Z,1015.86
2022-12-07T10:01:14.335Z,1015.89
2022-12-07T10:02:13.449Z,1015.88
2022-12-07T10:03:13.572Z,1015.89
2022-12-07T10:04:13.702Z,1015.88
2022-12-07T10:05:16.574Z,1015.85
2022-12-07T10:06:13.710Z,1015.88
2022-12-07T10:07:13.880Z,1015.80
2022-12-07T10:08:12.957Z,1015.79
2022-12-07T10:09:12.858Z,1015.86
2022-12-07T10:10:13.813Z,1015.81
2022-12-07T10:11:13.825Z,1015.81
2022-12-07T10:12:13.919Z,1015.83
2022-12-07T10:13:12.826Z,1015.87
2022-12-07T10:14:14.149Z,1015.84
2022-12-07T10:15:13.034Z,1015.83
2022-12-07T10:16:13.238Z,1015.79
2022-12-07T10:17:13.580Z,1015.84
2022-12-07T10:18:13.446Z,1015.84
2022-12-07T10:19:13.429Z,1015.84
2022-12-07T10:20:13.382Z,1015.83
2022-12-07T10:21:13.411Z,1015.84
2022-12-07T10:22:13.377Z,1015.85
2022-12-07T10:23:13.454Z,1015.85
2022-12-07T10:24:13.302Z,1015.84
2022-12-07T10:25:13.331Z,1015.80
2022-12-07T10:26:13.531Z,1015.76
2022-12-07T10:27:13.513Z,1015.79
2022-12-07T10:28:13.393Z,1015.78
2022-12-07T10:29:13.451Z,1015.77
2022-12-07T10:30:13.811Z,1015.77
2022-12-07T10:31:13.808Z,1015.81
2022-12-07T10:32:13.904Z,1015.81
2022-12-07T10:33:12.901Z,1015.77
2022-12-07T10:34:12.913Z,1015.78
2022-12-07T10:35:13.016Z,1015.77
2022-12-07T10:36:13.073Z,1015.76
2022-12-07T10:37:13.124Z,1015.73
2022-12-07T10:38:13.011Z,1015.76
2022-12-07T10:39:12.947Z,1015.72
2022-12-07T10:40:13.036Z,1015.73
2022-12-07T10:41:12.925Z,1015.69
2022-12-07T10:42:12.901Z,1015.70
2022-12-07T10:43:12.891Z,1015.69
2022-12-07T10:44:12.960Z,1015.68
2022-12-07T10:45:13.086Z,1015.64
2022-12-07T10:46:15.117Z,1015.62
2022-12-07T10:47:13.595Z,1015.62
2022-12-07T10:48:13.724Z,1015.61
2022-12-07T10:49:13.777Z,1015.61
2022-12-07T10:50:13.753Z,1015.59
2022-12-07T10:51:13.763Z,1015.59
2022-12-07T10:52:13.640Z,1015.56
2022-12-07T10:53:13.562Z,1015.56
2022-12-07T10:54:13.582Z,1015.52
2022-12-07T10:55:13.655Z,1015.53
2022-12-07T10:56:13.664Z,1015.57
2022-12-07T10:57:13.566Z,1015.53
2022-12-07T10:58:13.497Z,1015.50
2022-12-07T10:59:13.387Z,1015.50
2022-12-07T11:00:14.353Z,1015.50
2022-12-07T11:01:13.286Z,1015.50
2022-12-07T11:02:16.367Z,1015.42
2022-12-07T11:03:13.677Z,1015.43
2022-12-07T11:04:13.697Z,1015.42
2022-12-07T11:05:13.719Z,1015.46
2022-12-07T11:06:13.776Z,1015.43
2022-12-07T11:07:18.842Z,1015.41
2022-12-07T11:08:14.894Z,1015.39
2022-12-07T11:09:12.964Z,1015.36
2022-12-07T11:10:12.778Z,1015.37
2022-12-07T11:11:13.693Z,1015.40
2022-12-07T11:12:13.818Z,1015.41
2022-12-07T11:13:14.974Z,1015.36
2022-12-07T11:14:12.861Z,1015.31
2022-12-07T11:15:13.767Z,1015.33
2022-12-07T11:16:13.853Z,1015.29
2022-12-07T11:17:13.772Z,1015.26
2022-12-07T11:18:13.746Z,1015.25
2022-12-07T11:19:13.689Z,1015.23
2022-12-07T11:20:13.773Z,1015.28
2022-12-07T11:21:13.910Z,1015.28
2022-12-07T11:22:12.929Z,1015.22
2022-12-07T11:23:12.898Z,1015.24
2022-12-07T11:24:12.816Z,1015.20
2022-12-07T11:25:13.934Z,1015.20
2022-12-07T11:26:12.853Z,1015.19
2022-12-07T11:27:15.055Z,1015.19
2022-12-07T11:28:13.260Z,1015.19
2022-12-07T11:29:13.310Z,1015.17
2022-12-07T11:30:13.422Z,1015.22
2022-12-07T11:31:13.375Z,1015.24
2022-12-07T11:32:13.362Z,1015.22
2022-12-07T11:33:13.300Z,1015.22
2022-12-07T11:34:13.603Z,1015.23
2022-12-07T11:35:13.759Z,1015.19
2022-12-07T11:36:14.101Z,1015.18
2022-12-07T11:37:13.007Z,1015.12
2022-12-07T11:38:12.836Z,1015.09
2022-12-07T11:39:13.709Z,1015.08
2022-12-07T11:40:13.903Z,1015.11
2022-12-07T11:41:13.291Z,1015.06
2022-12-07T11:42:13.216Z,1015.02
2022-12-07T11:43:13.058Z,1015.05
2022-12-07T11:44:13.223Z,1015.02
2022-12-07T11:45:13.075Z,1015.11
2022-12-07T11:46:13.015Z,1015.12
2022-12-07T11:47:13.132Z,1015.06
2022-12-07T11:48:13.073Z,1015.08
2022-12-07T11:49:13.338Z,1015.06
2022-12-07T11:50:13.278Z,1015.02
2022-12-07T11:51:13.287Z,1015.06
2022-12-07T11:52:13.365Z,1015.04
2022-12-07T11:53:13.332Z,1015.03
2022-12-07T11:54:13.349Z,1014.99
2022-12-07T11:55:13.316Z,1015.00
2022-12-07T11:56:13.314Z,1014.96
2022-12-07T11:57:18.385Z,1014.98
2022-12-07T11:58:12.961Z,1014.98
2022-12-07T11:59:13.816Z,1014.98
2022-12-07T12:00:13.795Z,1015.00
2022-12-07T12:01:13.685Z,1014.97
2022-12-07T12:02:13.676Z,1014.96
2022-12-07T12:03:13.743Z,1015.02
2022-12-07T12:04:13.900Z,1015.01
2022-12-07T12:05:13.076Z,1015.04
2022-12-07T12:06:12.950Z,1015.04